Startpagina
METAR-TAF:

METAR-TAF

Vliegvelden :

Aeropuerto Internacional Mariscal Sucre

Quito, Ecuador

breedte: 0-06-48S, lengte: 78-21-31W, hoogte: 2400 m

Actueel weer

Dit bericht is 1 uur en het 3 minuten geleden gemaakt, om 05:00 UTC
Wind 3 kt uit het zuidoosten
Temperatuur 8°C
Vochtigheid 93%
Druk 1027 hPa
Zicht 10 km of meer
Weinig wolken op 500 ft
Verspreide wolken op 10000 ft

METAR: SEQM 160500Z 13003KT 9999 FEW005 SCT100 08/07 Q1027 NOSIG RMK A3035

Tijdstip: 01:03 (06:03 UTC)

Verwachting

Dit bericht is 1 uur en het 53 minuten geleden gemaakt, om 04:10 UTC
Verwachting geldig van 16 om 06 UTC tot 17 om 06 UTC
Wind 3 kt uit variabele richting
Zicht 10 km of meer
Verspreide wolken op 2600 ft
Wijzigt naar
van 16 om 17 UTC tot 16 om 18 UTC
Wind 10 kt uit het noordnoordwesten
Wijzigt naar
van 16 om 23 UTC tot 16 om 24 UTC
Wind 4 kt uit het noordnoordoosten

TAF: SEQM 160410Z 1606/1706 VRB03KT 9999 SCT026 BECMG 1617/1618 34010KT BECMG 1623/1624 03004KT TX23/1619Z TN07/1611Z

Waarnemingen en weersverwachtingen van meer dan 4000 vliegvelden (METAR en TAF).

De beschikbare stations zijn de gele en rode punten op de kaart.

Ga met uw muis naar het station om de naam te zien.

Klik dan om waarnemingen en weersverwachtingen te zien.

kaart wijzigen: klik op de groene knoppen met een zwart kruis om in te zoomen, op de groene knop met een streepje om uit te zoomen of op de groene pijlen voor aangrenzende kaarten.


METAR-TAF: